sensor_id;sensor_type;location;lat;lon;timestamp;P1;durP1;ratioP1;P2;durP2;ratioP2
23737;SDS011;12049;51.068;3.688;2022-11-20T16:52:38;26.33;;;9.95;;
23737;SDS011;12049;51.068;3.688;2022-11-20T16:55:04;37.38;;;11.10;;
23737;SDS011;12049;51.068;3.688;2022-11-20T16:57:30;32.88;;;9.73;;
23737;SDS011;12049;51.068;3.688;2022-11-20T16:59:57;33.53;;;11.13;;
23737;SDS011;12049;51.068;3.688;2022-11-20T17:02:24;44.20;;;16.20;;
23737;SDS011;12049;51.068;3.688;2022-11-20T17:04:50;32.80;;;13.13;;
23737;SDS011;12049;51.068;3.688;2022-11-20T17:07:16;34.13;;;10.55;;
23737;SDS011;12049;51.068;3.688;2022-11-20T17:09:42;29.23;;;7.90;;
23737;SDS011;12049;51.068;3.688;2022-11-20T17:12:07;29.42;;;7.78;;
23737;SDS011;12049;51.068;3.688;2022-11-20T17:14:33;28.92;;;6.10;;
23737;SDS011;12049;51.068;3.688;2022-11-20T17:16:59;24.77;;;4.93;;
23737;SDS011;12049;51.068;3.688;2022-11-20T17:19:25;22.42;;;4.45;;
23737;SDS011;12049;51.068;3.688;2022-11-20T17:21:50;26.10;;;4.57;;
23737;SDS011;12049;51.068;3.688;2022-11-20T17:24:16;29.60;;;5.05;;
23737;SDS011;12049;51.068;3.688;2022-11-20T17:26:42;29.70;;;5.78;;
23737;SDS011;12049;51.068;3.688;2022-11-20T17:29:12;24.00;;;4.95;;
23737;SDS011;12049;51.068;3.688;2022-11-20T17:31:40;25.67;;;5.03;;
23737;SDS011;12049;51.068;3.688;2022-11-20T17:34:07;27.15;;;5.50;;
23737;SDS011;12049;51.068;3.688;2022-11-20T17:36:36;23.30;;;5.32;;
23737;SDS011;12049;51.068;3.688;2022-11-20T17:39:03;26.80;;;5.35;;
23737;SDS011;12049;51.068;3.688;2022-11-20T17:41:29;30.98;;;5.60;;
23737;SDS011;12049;51.068;3.688;2022-11-20T17:43:55;32.47;;;6.93;;
23737;SDS011;12049;51.068;3.688;2022-11-20T17:46:23;28.63;;;5.90;;
23737;SDS011;12049;51.068;3.688;2022-11-20T17:48:51;30.50;;;6.55;;
23737;SDS011;12049;51.068;3.688;2022-11-20T17:51:17;31.05;;;6.63;;
23737;SDS011;12049;51.068;3.688;2022-11-20T17:53:48;30.67;;;6.00;;
23737;SDS011;12049;51.068;3.688;2022-11-20T17:56:15;30.92;;;7.15;;
23737;SDS011;12049;51.068;3.688;2022-11-20T17:58:59;34.97;;;6.88;;
23737;SDS011;12049;51.068;3.688;2022-11-20T18:01:28;31.67;;;7.07;;
23737;SDS011;12049;51.068;3.688;2022-11-20T18:03:54;33.90;;;6.38;;
23737;SDS011;12049;51.068;3.688;2022-11-20T18:06:21;30.20;;;6.85;;
23737;SDS011;12049;51.068;3.688;2022-11-20T18:08:49;32.28;;;7.07;;
23737;SDS011;12049;51.068;3.688;2022-11-20T18:11:16;28.63;;;6.00;;
23737;SDS011;12049;51.068;3.688;2022-11-20T18:13:44;30.73;;;6.30;;
23737;SDS011;12049;51.068;3.688;2022-11-20T18:16:33;29.65;;;5.70;;
23737;SDS011;12049;51.068;3.688;2022-11-20T18:19:04;26.50;;;5.97;;
23737;SDS011;12049;51.068;3.688;2022-11-20T18:21:30;25.52;;;5.20;;
23737;SDS011;12049;51.068;3.688;2022-11-20T18:23:56;34.40;;;6.30;;
23737;SDS011;12049;51.068;3.688;2022-11-20T18:26:23;31.63;;;6.85;;
23737;SDS011;12049;51.068;3.688;2022-11-20T18:28:49;28.15;;;7.32;;
23737;SDS011;12049;51.068;3.688;2022-11-20T18:31:16;27.33;;;7.80;;
23737;SDS011;12049;51.068;3.688;2022-11-20T18:33:42;33.38;;;7.57;;
23737;SDS011;12049;51.068;3.688;2022-11-20T18:36:08;28.45;;;7.13;;
23737;SDS011;12049;51.068;3.688;2022-11-20T18:38:34;31.40;;;7.10;;
23737;SDS011;12049;51.068;3.688;2022-11-20T18:41:00;33.53;;;7.50;;
23737;SDS011;12049;51.068;3.688;2022-11-20T18:43:26;27.73;;;7.32;;
23737;SDS011;12049;51.068;3.688;2022-11-20T18:46:09;40.10;;;7.43;;
23737;SDS011;12049;51.068;3.688;2022-11-20T18:48:35;32.40;;;6.95;;
23737;SDS011;12049;51.068;3.688;2022-11-20T18:51:06;30.50;;;6.88;;
23737;SDS011;12049;51.068;3.688;2022-11-20T18:53:35;28.98;;;6.40;;
23737;SDS011;12049;51.068;3.688;2022-11-20T18:56:04;30.00;;;6.53;;
23737;SDS011;12049;51.068;3.688;2022-11-20T18:58:31;29.65;;;7.18;;
23737;SDS011;12049;51.068;3.688;2022-11-20T19:01:03;31.02;;;7.10;;
23737;SDS011;12049;51.068;3.688;2022-11-20T19:03:30;35.05;;;6.60;;
23737;SDS011;12049;51.068;3.688;2022-11-20T19:05:56;29.30;;;6.65;;
23737;SDS011;12049;51.068;3.688;2022-11-20T19:08:22;35.25;;;7.65;;
23737;SDS011;12049;51.068;3.688;2022-11-20T19:10:47;36.10;;;8.02;;
23737;SDS011;12049;51.068;3.688;2022-11-20T19:13:13;32.92;;;6.75;;
23737;SDS011;12049;51.068;3.688;2022-11-20T19:15:38;26.67;;;6.70;;
23737;SDS011;12049;51.068;3.688;2022-11-20T19:18:04;35.90;;;7.47;;
23737;SDS011;12049;51.068;3.688;2022-11-20T19:20:30;29.05;;;7.53;;
23737;SDS011;12049;51.068;3.688;2022-11-20T19:22:56;25.15;;;7.15;;
23737;SDS011;12049;51.068;3.688;2022-11-20T19:25:21;32.28;;;7.55;;
23737;SDS011;12049;51.068;3.688;2022-11-20T19:27:47;30.35;;;8.18;;
23737;SDS011;12049;51.068;3.688;2022-11-20T19:30:13;29.10;;;6.35;;
23737;SDS011;12049;51.068;3.688;2022-11-20T19:32:38;29.90;;;7.05;;
23737;SDS011;12049;51.068;3.688;2022-11-20T19:35:04;32.72;;;7.40;;
23737;SDS011;12049;51.068;3.688;2022-11-20T19:37:33;28.20;;;7.32;;
23737;SDS011;12049;51.068;3.688;2022-11-20T19:39:59;30.23;;;7.53;;
23737;SDS011;12049;51.068;3.688;2022-11-20T19:42:28;26.50;;;7.30;;
23737;SDS011;12049;51.068;3.688;2022-11-20T19:44:54;28.83;;;7.68;;
23737;SDS011;12049;51.068;3.688;2022-11-20T19:47:22;29.40;;;7.70;;
23737;SDS011;12049;51.068;3.688;2022-11-20T19:49:48;30.05;;;6.90;;
23737;SDS011;12049;51.068;3.688;2022-11-20T19:52:13;28.95;;;7.10;;
23737;SDS011;12049;51.068;3.688;2022-11-20T19:54:39;30.48;;;6.85;;
23737;SDS011;12049;51.068;3.688;2022-11-20T19:57:04;27.13;;;7.13;;
23737;SDS011;12049;51.068;3.688;2022-11-20T19:59:30;33.28;;;7.45;;
23737;SDS011;12049;51.068;3.688;2022-11-20T20:01:56;28.52;;;6.97;;
23737;SDS011;12049;51.068;3.688;2022-11-20T20:04:22;36.10;;;7.10;;
23737;SDS011;12049;51.068;3.688;2022-11-20T20:06:47;33.97;;;6.97;;
23737;SDS011;12049;51.068;3.688;2022-11-20T20:09:14;33.13;;;7.28;;
23737;SDS011;12049;51.068;3.688;2022-11-20T20:11:43;32.38;;;7.13;;
23737;SDS011;12049;51.068;3.688;2022-11-20T20:14:11;27.45;;;6.90;;
23737;SDS011;12049;51.068;3.688;2022-11-20T20:16:39;30.48;;;7.30;;
23737;SDS011;12049;51.068;3.688;2022-11-20T20:19:05;27.25;;;6.72;;
23737;SDS011;12049;51.068;3.688;2022-11-20T20:21:31;32.05;;;6.95;;
23737;SDS011;12049;51.068;3.688;2022-11-20T20:23:59;26.83;;;7.05;;
23737;SDS011;12049;51.068;3.688;2022-11-20T20:26:25;25.52;;;6.30;;
23737;SDS011;12049;51.068;3.688;2022-11-20T20:28:52;26.48;;;6.28;;
23737;SDS011;12049;51.068;3.688;2022-11-20T20:31:22;27.02;;;7.07;;
23737;SDS011;12049;51.068;3.688;2022-11-20T20:33:49;23.23;;;6.00;;
23737;SDS011;12049;51.068;3.688;2022-11-20T20:36:15;35.85;;;7.65;;
23737;SDS011;12049;51.068;3.688;2022-11-20T20:38:42;29.60;;;6.57;;
23737;SDS011;12049;51.068;3.688;2022-11-20T20:41:13;30.02;;;7.35;;
23737;SDS011;12049;51.068;3.688;2022-11-20T20:46:26;24.40;;;5.88;;
23737;SDS011;12049;51.068;3.688;2022-11-20T20:48:51;31.25;;;7.03;;
23737;SDS011;12049;51.068;3.688;2022-11-20T20:51:17;25.85;;;6.55;;
23737;SDS011;12049;51.068;3.688;2022-11-20T20:53:43;29.25;;;6.65;;
23737;SDS011;12049;51.068;3.688;2022-11-20T20:56:09;29.42;;;7.25;;
23737;SDS011;12049;51.068;3.688;2022-11-20T20:58:34;27.92;;;6.63;;
23737;SDS011;12049;51.068;3.688;2022-11-20T21:01:04;23.98;;;6.00;;
23737;SDS011;12049;51.068;3.688;2022-11-20T21:03:34;27.98;;;6.78;;
23737;SDS011;12049;51.068;3.688;2022-11-20T21:06:01;20.40;;;6.40;;
23737;SDS011;12049;51.068;3.688;2022-11-20T21:08:27;17.92;;;5.85;;
23737;SDS011;12049;51.068;3.688;2022-11-20T21:10:54;23.85;;;6.82;;
23737;SDS011;12049;51.068;3.688;2022-11-20T21:13:25;29.95;;;7.80;;
23737;SDS011;12049;51.068;3.688;2022-11-20T21:15:51;29.75;;;6.85;;
23737;SDS011;12049;51.068;3.688;2022-11-20T21:18:17;28.27;;;6.30;;
23737;SDS011;12049;51.068;3.688;2022-11-20T21:20:44;26.48;;;6.22;;
23737;SDS011;12049;51.068;3.688;2022-11-20T21:23:30;22.35;;;5.90;;
23737;SDS011;12049;51.068;3.688;2022-11-20T21:25:58;22.30;;;5.55;;
23737;SDS011;12049;51.068;3.688;2022-11-20T21:28:25;15.45;;;4.63;;
23737;SDS011;12049;51.068;3.688;2022-11-20T21:30:51;12.60;;;3.58;;
23737;SDS011;12049;51.068;3.688;2022-11-20T21:33:16;12.32;;;3.08;;
23737;SDS011;12049;51.068;3.688;2022-11-20T21:35:42;9.23;;;2.25;;
23737;SDS011;12049;51.068;3.688;2022-11-20T21:38:08;10.10;;;2.28;;
23737;SDS011;12049;51.068;3.688;2022-11-20T21:40:33;4.05;;;1.58;;
23737;SDS011;12049;51.068;3.688;2022-11-20T21:42:59;6.22;;;1.77;;
23737;SDS011;12049;51.068;3.688;2022-11-20T21:45:24;6.40;;;1.60;;
23737;SDS011;12049;51.068;3.688;2022-11-20T21:47:50;7.75;;;1.88;;
23737;SDS011;12049;51.068;3.688;2022-11-20T21:50:16;9.50;;;2.10;;
23737;SDS011;12049;51.068;3.688;2022-11-20T21:52:43;9.95;;;2.05;;
23737;SDS011;12049;51.068;3.688;2022-11-20T21:55:10;9.27;;;2.60;;
23737;SDS011;12049;51.068;3.688;2022-11-20T21:57:48;8.63;;;2.60;;
23737;SDS011;12049;51.068;3.688;2022-11-20T22:00:13;15.07;;;2.95;;
23737;SDS011;12049;51.068;3.688;2022-11-20T22:02:39;12.23;;;3.20;;
23737;SDS011;12049;51.068;3.688;2022-11-20T22:05:05;13.68;;;3.10;;
23737;SDS011;12049;51.068;3.688;2022-11-20T22:07:31;18.00;;;3.65;;
23737;SDS011;12049;51.068;3.688;2022-11-20T22:09:57;9.40;;;2.90;;
23737;SDS011;12049;51.068;3.688;2022-11-20T22:12:23;8.80;;;2.20;;
23737;SDS011;12049;51.068;3.688;2022-11-20T22:14:48;9.85;;;2.28;;
23737;SDS011;12049;51.068;3.688;2022-11-20T22:17:14;9.95;;;2.28;;
23737;SDS011;12049;51.068;3.688;2022-11-20T22:19:40;11.98;;;2.60;;
23737;SDS011;12049;51.068;3.688;2022-11-20T22:22:05;7.45;;;2.10;;
23737;SDS011;12049;51.068;3.688;2022-11-20T22:24:31;7.30;;;2.20;;
23737;SDS011;12049;51.068;3.688;2022-11-20T22:26:56;10.80;;;2.65;;
23737;SDS011;12049;51.068;3.688;2022-11-20T22:29:22;8.45;;;2.35;;
23737;SDS011;12049;51.068;3.688;2022-11-20T22:31:50;8.38;;;2.58;;
23737;SDS011;12049;51.068;3.688;2022-11-20T22:34:16;13.75;;;2.88;;
23737;SDS011;12049;51.068;3.688;2022-11-20T22:36:41;8.13;;;2.55;;
23737;SDS011;12049;51.068;3.688;2022-11-20T22:39:07;10.20;;;3.17;;
23737;SDS011;12049;51.068;3.688;2022-11-20T22:41:33;12.45;;;3.95;;
23737;SDS011;12049;51.068;3.688;2022-11-20T22:43:59;13.95;;;3.92;;
23737;SDS011;12049;51.068;3.688;2022-11-20T22:46:33;15.70;;;4.20;;
23737;SDS011;12049;51.068;3.688;2022-11-20T22:49:01;12.63;;;3.50;;
23737;SDS011;12049;51.068;3.688;2022-11-20T22:51:34;13.20;;;4.15;;
23737;SDS011;12049;51.068;3.688;2022-11-20T22:54:02;16.67;;;3.97;;
23737;SDS011;12049;51.068;3.688;2022-11-20T22:56:28;11.68;;;4.03;;
23737;SDS011;12049;51.068;3.688;2022-11-20T22:58:53;17.77;;;4.40;;
23737;SDS011;12049;51.068;3.688;2022-11-20T23:01:23;16.75;;;4.43;;
23737;SDS011;12049;51.068;3.688;2022-11-20T23:03:54;11.93;;;4.28;;
23737;SDS011;12049;51.068;3.688;2022-11-20T23:06:21;12.13;;;4.68;;
23737;SDS011;12049;51.068;3.688;2022-11-20T23:08:48;10.82;;;3.92;;
23737;SDS011;12049;51.068;3.688;2022-11-20T23:11:18;13.50;;;4.13;;
23737;SDS011;12049;51.068;3.688;2022-11-20T23:13:46;11.82;;;4.00;;
23737;SDS011;12049;51.068;3.688;2022-11-20T23:16:13;11.88;;;3.88;;
23737;SDS011;12049;51.068;3.688;2022-11-20T23:18:40;12.00;;;4.30;;
23737;SDS011;12049;51.068;3.688;2022-11-20T23:23:39;16.63;;;4.10;;
23737;SDS011;12049;51.068;3.688;2022-11-20T23:26:07;15.38;;;4.38;;
23737;SDS011;12049;51.068;3.688;2022-11-20T23:28:36;16.85;;;4.15;;
23737;SDS011;12049;51.068;3.688;2022-11-20T23:31:03;10.63;;;4.10;;
23737;SDS011;12049;51.068;3.688;2022-11-20T23:33:30;15.20;;;4.32;;
23737;SDS011;12049;51.068;3.688;2022-11-20T23:35:56;13.20;;;3.85;;
23737;SDS011;12049;51.068;3.688;2022-11-20T23:38:21;12.70;;;3.92;;
23737;SDS011;12049;51.068;3.688;2022-11-20T23:40:47;11.48;;;4.32;;
23737;SDS011;12049;51.068;3.688;2022-11-20T23:43:14;13.85;;;4.45;;
23737;SDS011;12049;51.068;3.688;2022-11-20T23:45:44;10.00;;;4.25;;
23737;SDS011;12049;51.068;3.688;2022-11-20T23:48:11;15.88;;;4.65;;
23737;SDS011;12049;51.068;3.688;2022-11-20T23:50:37;12.65;;;4.43;;
23737;SDS011;12049;51.068;3.688;2022-11-20T23:53:04;13.05;;;4.32;;
23737;SDS011;12049;51.068;3.688;2022-11-20T23:55:30;12.75;;;4.53;;
23737;SDS011;12049;51.068;3.688;2022-11-20T23:57:56;13.40;;;4.35;;
